sensor_id;sensor_type;location;lat;lon;timestamp;temperature;humidity
32947;DHT22;54465;51.230;22.504;2023-01-23T00:01:21;4.00;99.90
32947;DHT22;54465;51.230;22.504;2023-01-23T00:06:24;3.90;99.90
32947;DHT22;54465;51.230;22.504;2023-01-23T00:11:28;3.90;99.90
32947;DHT22;54465;51.230;22.504;2023-01-23T00:16:32;3.80;99.90
32947;DHT22;54465;51.230;22.504;2023-01-23T00:21:33;3.80;99.90
32947;DHT22;54465;51.230;22.504;2023-01-23T00:26:34;3.80;99.90
32947;DHT22;54465;51.230;22.504;2023-01-23T00:31:36;3.80;99.90
32947;DHT22;54465;51.230;22.504;2023-01-23T00:36:40;3.80;99.90
32947;DHT22;54465;51.230;22.504;2023-01-23T00:41:41;3.70;99.90
32947;DHT22;54465;51.230;22.504;2023-01-23T00:46:42;3.70;99.90
32947;DHT22;54465;51.230;22.504;2023-01-23T00:51:44;3.60;99.90
32947;DHT22;54465;51.230;22.504;2023-01-23T00:56:44;3.60;99.90
32947;DHT22;54465;51.230;22.504;2023-01-23T01:01:45;3.70;99.90
32947;DHT22;54465;51.230;22.504;2023-01-23T01:06:46;3.60;99.90
32947;DHT22;54465;51.230;22.504;2023-01-23T01:11:47;3.60;99.90
32947;DHT22;54465;51.230;22.504;2023-01-23T01:16:49;3.70;99.90
32947;DHT22;54465;51.230;22.504;2023-01-23T01:21:49;3.70;99.90
32947;DHT22;54465;51.230;22.504;2023-01-23T01:26:51;3.70;99.90
32947;DHT22;54465;51.230;22.504;2023-01-23T01:31:52;3.70;99.90
32947;DHT22;54465;51.230;22.504;2023-01-23T01:36:53;3.70;99.90
32947;DHT22;54465;51.230;22.504;2023-01-23T01:41:54;3.70;99.90
32947;DHT22;54465;51.230;22.504;2023-01-23T01:46:54;3.70;99.90
32947;DHT22;54465;51.230;22.504;2023-01-23T01:52:00;3.70;99.90
32947;DHT22;54465;51.230;22.504;2023-01-23T01:57:20;3.70;99.90
32947;DHT22;54465;51.230;22.504;2023-01-23T02:07:43;3.70;99.90
32947;DHT22;54465;51.230;22.504;2023-01-23T02:12:46;3.70;99.90
32947;DHT22;54465;51.230;22.504;2023-01-23T02:17:50;3.70;99.90
32947;DHT22;54465;51.230;22.504;2023-01-23T02:27:55;3.80;99.90
32947;DHT22;54465;51.230;22.504;2023-01-23T02:38:12;3.80;99.90
32947;DHT22;54465;51.230;22.504;2023-01-23T02:43:16;3.80;99.90
32947;DHT22;54465;51.230;22.504;2023-01-23T02:48:25;3.80;99.90
32947;DHT22;54465;51.230;22.504;2023-01-23T02:53:26;3.90;99.90
32947;DHT22;54465;51.230;22.504;2023-01-23T02:58:27;3.90;99.90
32947;DHT22;54465;51.230;22.504;2023-01-23T03:03:46;3.90;99.90
32947;DHT22;54465;51.230;22.504;2023-01-23T03:08:50;3.90;99.90
32947;DHT22;54465;51.230;22.504;2023-01-23T03:13:51;3.80;99.90
32947;DHT22;54465;51.230;22.504;2023-01-23T03:18:52;3.80;99.90
32947;DHT22;54465;51.230;22.504;2023-01-23T03:23:53;3.70;99.90
32947;DHT22;54465;51.230;22.504;2023-01-23T03:28:54;3.70;99.90
32947;DHT22;54465;51.230;22.504;2023-01-23T03:34:13;3.60;99.90
32947;DHT22;54465;51.230;22.504;2023-01-23T03:39:17;3.70;99.90
32947;DHT22;54465;51.230;22.504;2023-01-23T03:44:37;3.70;99.90
32947;DHT22;54465;51.230;22.504;2023-01-23T03:49:38;3.70;99.90
32947;DHT22;54465;51.230;22.504;2023-01-23T03:54:38;3.70;99.90
32947;DHT22;54465;51.230;22.504;2023-01-23T03:59:42;3.70;99.90
32947;DHT22;54465;51.230;22.504;2023-01-23T04:04:43;3.50;99.90
32947;DHT22;54465;51.230;22.504;2023-01-23T04:09:44;3.50;99.90
32947;DHT22;54465;51.230;22.504;2023-01-23T04:14:45;3.40;99.90
32947;DHT22;54465;51.230;22.504;2023-01-23T04:19:47;3.40;99.90
32947;DHT22;54465;51.230;22.504;2023-01-23T04:24:48;3.40;99.90
32947;DHT22;54465;51.230;22.504;2023-01-23T04:29:49;3.40;99.90
32947;DHT22;54465;51.230;22.504;2023-01-23T04:34:51;3.40;99.90
32947;DHT22;54465;51.230;22.504;2023-01-23T04:39:52;3.50;99.90
32947;DHT22;54465;51.230;22.504;2023-01-23T04:44:53;3.50;99.90
32947;DHT22;54465;51.230;22.504;2023-01-23T04:50:12;3.50;99.90
32947;DHT22;54465;51.230;22.504;2023-01-23T04:55:16;3.50;99.90
32947;DHT22;54465;51.230;22.504;2023-01-23T05:00:18;3.40;99.90
32947;DHT22;54465;51.230;22.504;2023-01-23T05:05:20;3.40;99.90
32947;DHT22;54465;51.230;22.504;2023-01-23T05:10:23;3.30;99.90
32947;DHT22;54465;51.230;22.504;2023-01-23T05:15:24;3.40;99.90
32947;DHT22;54465;51.230;22.504;2023-01-23T05:20:25;3.50;99.90
32947;DHT22;54465;51.230;22.504;2023-01-23T05:25:28;3.50;99.90
32947;DHT22;54465;51.230;22.504;2023-01-23T05:30:31;3.50;99.90
32947;DHT22;54465;51.230;22.504;2023-01-23T05:35:47;3.50;99.90
32947;DHT22;54465;51.230;22.504;2023-01-23T05:40:49;3.50;99.90
32947;DHT22;54465;51.230;22.504;2023-01-23T05:46:19;3.50;99.90
32947;DHT22;54465;51.230;22.504;2023-01-23T05:51:23;3.50;99.90
32947;DHT22;54465;51.230;22.504;2023-01-23T05:56:31;3.60;99.90
32947;DHT22;54465;51.230;22.504;2023-01-23T06:01:52;3.60;99.90
32947;DHT22;54465;51.230;22.504;2023-01-23T06:07:25;3.60;99.90
32947;DHT22;54465;51.230;22.504;2023-01-23T06:12:30;3.60;99.90
32947;DHT22;54465;51.230;22.504;2023-01-23T06:17:31;3.60;99.90
32947;DHT22;54465;51.230;22.504;2023-01-23T06:22:32;3.60;99.90
32947;DHT22;54465;51.230;22.504;2023-01-23T06:27:51;3.50;99.90
32947;DHT22;54465;51.230;22.504;2023-01-23T06:32:52;3.50;99.90
32947;DHT22;54465;51.230;22.504;2023-01-23T06:37:59;3.50;99.90
32947;DHT22;54465;51.230;22.504;2023-01-23T06:43:00;3.50;99.90
32947;DHT22;54465;51.230;22.504;2023-01-23T06:48:01;3.60;99.90
32947;DHT22;54465;51.230;22.504;2023-01-23T06:53:02;3.50;99.90
32947;DHT22;54465;51.230;22.504;2023-01-23T06:58:03;3.60;99.90
32947;DHT22;54465;51.230;22.504;2023-01-23T07:03:04;3.60;99.90
32947;DHT22;54465;51.230;22.504;2023-01-23T07:08:06;3.70;99.90
32947;DHT22;54465;51.230;22.504;2023-01-23T07:13:09;3.70;99.90
32947;DHT22;54465;51.230;22.504;2023-01-23T07:18:11;3.60;99.90
32947;DHT22;54465;51.230;22.504;2023-01-23T07:23:12;3.70;99.90
32947;DHT22;54465;51.230;22.504;2023-01-23T07:28:13;3.70;99.90
32947;DHT22;54465;51.230;22.504;2023-01-23T07:33:14;3.70;99.90
32947;DHT22;54465;51.230;22.504;2023-01-23T07:38:14;3.60;99.90
32947;DHT22;54465;51.230;22.504;2023-01-23T07:43:15;3.60;99.90
32947;DHT22;54465;51.230;22.504;2023-01-23T07:48:16;3.60;99.90
32947;DHT22;54465;51.230;22.504;2023-01-23T07:53:16;3.60;99.90
32947;DHT22;54465;51.230;22.504;2023-01-23T07:58:17;3.60;99.90
32947;DHT22;54465;51.230;22.504;2023-01-23T08:03:18;3.70;99.90
32947;DHT22;54465;51.230;22.504;2023-01-23T08:08:20;3.80;99.90
32947;DHT22;54465;51.230;22.504;2023-01-23T08:13:20;3.80;99.90
32947;DHT22;54465;51.230;22.504;2023-01-23T08:18:21;3.90;99.90
32947;DHT22;54465;51.230;22.504;2023-01-23T08:23:30;4.00;99.90
32947;DHT22;54465;51.230;22.504;2023-01-23T08:28:31;4.10;99.90
32947;DHT22;54465;51.230;22.504;2023-01-23T08:33:32;4.10;99.90
32947;DHT22;54465;51.230;22.504;2023-01-23T08:38:33;4.20;99.90
32947;DHT22;54465;51.230;22.504;2023-01-23T08:43:34;4.20;99.90
32947;DHT22;54465;51.230;22.504;2023-01-23T08:48:35;4.30;99.90
32947;DHT22;54465;51.230;22.504;2023-01-23T08:53:36;4.40;99.90
32947;DHT22;54465;51.230;22.504;2023-01-23T08:58:36;4.30;99.90
32947;DHT22;54465;51.230;22.504;2023-01-23T09:03:37;4.40;99.90
32947;DHT22;54465;51.230;22.504;2023-01-23T09:08:38;4.40;99.90
32947;DHT22;54465;51.230;22.504;2023-01-23T09:13:39;4.40;99.90
32947;DHT22;54465;51.230;22.504;2023-01-23T09:18:40;4.40;99.90
32947;DHT22;54465;51.230;22.504;2023-01-23T09:23:41;4.40;99.90
32947;DHT22;54465;51.230;22.504;2023-01-23T09:28:42;4.40;99.90
32947;DHT22;54465;51.230;22.504;2023-01-23T09:33:43;4.40;99.90
32947;DHT22;54465;51.230;22.504;2023-01-23T09:38:43;4.40;99.90
32947;DHT22;54465;51.230;22.504;2023-01-23T09:44:00;4.40;99.90
32947;DHT22;54465;51.230;22.504;2023-01-23T09:49:16;4.40;99.90
32947;DHT22;54465;51.230;22.504;2023-01-23T09:54:43;4.50;99.90
32947;DHT22;54465;51.230;22.504;2023-01-23T09:59:50;4.60;99.90
32947;DHT22;54465;51.230;22.504;2023-01-23T10:04:53;4.60;99.90
32947;DHT22;54465;51.230;22.504;2023-01-23T10:10:35;4.60;99.90
32947;DHT22;54465;51.230;22.504;2023-01-23T10:26:37;4.50;99.90
32947;DHT22;54465;51.230;22.504;2023-01-23T10:31:45;4.40;99.90
32947;DHT22;54465;51.230;22.504;2023-01-23T10:42:31;4.50;99.90
32947;DHT22;54465;51.230;22.504;2023-01-23T10:47:43;4.50;99.90
32947;DHT22;54465;51.230;22.504;2023-01-23T10:52:45;4.60;99.90
32947;DHT22;54465;51.230;22.504;2023-01-23T10:57:48;4.70;99.90
32947;DHT22;54465;51.230;22.504;2023-01-23T11:02:52;4.70;99.90
32947;DHT22;54465;51.230;22.504;2023-01-23T11:07:54;4.80;99.90
32947;DHT22;54465;51.230;22.504;2023-01-23T11:12:55;4.90;99.90
32947;DHT22;54465;51.230;22.504;2023-01-23T11:17:57;4.90;99.90
32947;DHT22;54465;51.230;22.504;2023-01-23T11:23:14;4.80;99.90
32947;DHT22;54465;51.230;22.504;2023-01-23T11:28:33;4.70;99.90
32947;DHT22;54465;51.230;22.504;2023-01-23T11:44:21;4.60;99.90
32947;DHT22;54465;51.230;22.504;2023-01-23T11:55:00;4.70;99.90
32947;DHT22;54465;51.230;22.504;2023-01-23T12:21:50;4.70;99.90
32947;DHT22;54465;51.230;22.504;2023-01-23T12:27:00;4.70;99.90
32947;DHT22;54465;51.230;22.504;2023-01-23T12:43:14;4.90;99.90
32947;DHT22;54465;51.230;22.504;2023-01-23T12:48:31;4.90;99.90
32947;DHT22;54465;51.230;22.504;2023-01-23T12:53:37;4.90;99.90
32947;DHT22;54465;51.230;22.504;2023-01-23T12:58:46;4.80;99.90
32947;DHT22;54465;51.230;22.504;2023-01-23T13:04:05;4.90;99.90
32947;DHT22;54465;51.230;22.504;2023-01-23T13:19:39;4.90;99.90
32947;DHT22;54465;51.230;22.504;2023-01-23T13:25:06;4.90;99.90
32947;DHT22;54465;51.230;22.504;2023-01-23T13:51:41;4.90;99.90
32947;DHT22;54465;51.230;22.504;2023-01-23T13:56:43;4.90;99.90
32947;DHT22;54465;51.230;22.504;2023-01-23T14:01:51;4.90;99.90
32947;DHT22;54465;51.230;22.504;2023-01-23T14:07:26;4.90;99.90
32947;DHT22;54465;51.230;22.504;2023-01-23T14:12:46;4.90;99.90
32947;DHT22;54465;51.230;22.504;2023-01-23T14:17:47;4.90;99.90
32947;DHT22;54465;51.230;22.504;2023-01-23T14:22:48;4.90;99.90
32947;DHT22;54465;51.230;22.504;2023-01-23T14:28:01;4.90;99.90
32947;DHT22;54465;51.230;22.504;2023-01-23T14:33:10;4.80;99.90
32947;DHT22;54465;51.230;22.504;2023-01-23T14:38:17;4.90;99.90
32947;DHT22;54465;51.230;22.504;2023-01-23T14:43:22;4.80;99.90
32947;DHT22;54465;51.230;22.504;2023-01-23T14:48:24;4.80;99.90
32947;DHT22;54465;51.230;22.504;2023-01-23T14:53:25;4.70;99.90
32947;DHT22;54465;51.230;22.504;2023-01-23T14:58:26;4.70;99.90
32947;DHT22;54465;51.230;22.504;2023-01-23T15:03:42;4.70;99.90
32947;DHT22;54465;51.230;22.504;2023-01-23T15:08:43;4.70;99.90
32947;DHT22;54465;51.230;22.504;2023-01-23T15:13:52;4.70;99.90
32947;DHT22;54465;51.230;22.504;2023-01-23T15:18:59;4.70;99.90
32947;DHT22;54465;51.230;22.504;2023-01-23T15:29:19;4.70;99.90
32947;DHT22;54465;51.230;22.504;2023-01-23T15:34:32;4.70;99.90
32947;DHT22;54465;51.230;22.504;2023-01-23T15:39:34;4.70;99.90
32947;DHT22;54465;51.230;22.504;2023-01-23T15:44:36;4.70;99.90
32947;DHT22;54465;51.230;22.504;2023-01-23T15:49:39;4.70;99.90
32947;DHT22;54465;51.230;22.504;2023-01-23T15:54:39;4.70;99.90
32947;DHT22;54465;51.230;22.504;2023-01-23T15:59:40;4.70;99.90
32947;DHT22;54465;51.230;22.504;2023-01-23T16:04:41;4.60;99.90
32947;DHT22;54465;51.230;22.504;2023-01-23T16:09:42;4.60;99.90
32947;DHT22;54465;51.230;22.504;2023-01-23T16:14:47;4.60;99.90
32947;DHT22;54465;51.230;22.504;2023-01-23T16:19:47;4.60;99.90
32947;DHT22;54465;51.230;22.504;2023-01-23T16:24:50;4.60;99.90
32947;DHT22;54465;51.230;22.504;2023-01-23T16:29:51;4.60;99.90
32947;DHT22;54465;51.230;22.504;2023-01-23T16:34:52;4.60;99.90
32947;DHT22;54465;51.230;22.504;2023-01-23T16:39:53;4.70;99.90
32947;DHT22;54465;51.230;22.504;2023-01-23T16:44:54;4.70;99.90
32947;DHT22;54465;51.230;22.504;2023-01-23T16:49:55;4.60;99.90
32947;DHT22;54465;51.230;22.504;2023-01-23T16:54:55;4.60;99.90
32947;DHT22;54465;51.230;22.504;2023-01-23T16:59:57;4.60;99.90
32947;DHT22;54465;51.230;22.504;2023-01-23T17:04:58;4.60;99.90
32947;DHT22;54465;51.230;22.504;2023-01-23T17:09:58;4.60;99.90
32947;DHT22;54465;51.230;22.504;2023-01-23T17:15:01;4.60;99.90
32947;DHT22;54465;51.230;22.504;2023-01-23T17:20:03;4.50;99.90
32947;DHT22;54465;51.230;22.504;2023-01-23T17:25:12;4.50;99.90
32947;DHT22;54465;51.230;22.504;2023-01-23T17:30:21;4.60;99.90
32947;DHT22;54465;51.230;22.504;2023-01-23T17:35:30;4.60;99.90
32947;DHT22;54465;51.230;22.504;2023-01-23T17:40:32;4.60;99.90
32947;DHT22;54465;51.230;22.504;2023-01-23T17:45:33;4.60;99.90
32947;DHT22;54465;51.230;22.504;2023-01-23T17:50:34;4.60;99.90
32947;DHT22;54465;51.230;22.504;2023-01-23T17:55:35;4.60;99.90
32947;DHT22;54465;51.230;22.504;2023-01-23T18:00:37;4.50;99.90
32947;DHT22;54465;51.230;22.504;2023-01-23T18:05:39;4.60;99.90
32947;DHT22;54465;51.230;22.504;2023-01-23T18:10:44;4.60;99.90
32947;DHT22;54465;51.230;22.504;2023-01-23T18:15:55;4.60;99.90
32947;DHT22;54465;51.230;22.504;2023-01-23T18:20:59;4.60;99.90
32947;DHT22;54465;51.230;22.504;2023-01-23T18:26:28;4.60;99.90
32947;DHT22;54465;51.230;22.504;2023-01-23T18:31:41;4.60;99.90
32947;DHT22;54465;51.230;22.504;2023-01-23T18:42:21;4.60;99.90
32947;DHT22;54465;51.230;22.504;2023-01-23T18:47:23;4.50;99.90
32947;DHT22;54465;51.230;22.504;2023-01-23T19:03:40;4.60;99.90
32947;DHT22;54465;51.230;22.504;2023-01-23T19:08:42;4.60;99.90
32947;DHT22;54465;51.230;22.504;2023-01-23T19:19:22;4.60;99.90
32947;DHT22;54465;51.230;22.504;2023-01-23T19:24:25;4.50;99.90
32947;DHT22;54465;51.230;22.504;2023-01-23T19:29:27;4.50;99.90
32947;DHT22;54465;51.230;22.504;2023-01-23T19:34:27;4.50;99.90
32947;DHT22;54465;51.230;22.504;2023-01-23T19:39:28;4.60;99.90
32947;DHT22;54465;51.230;22.504;2023-01-23T19:44:30;4.50;99.90
32947;DHT22;54465;51.230;22.504;2023-01-23T19:49:30;4.60;99.90
32947;DHT22;54465;51.230;22.504;2023-01-23T19:54:31;4.60;99.90
32947;DHT22;54465;51.230;22.504;2023-01-23T19:59:33;4.60;99.90
32947;DHT22;54465;51.230;22.504;2023-01-23T20:04:33;4.60;99.90
32947;DHT22;54465;51.230;22.504;2023-01-23T20:09:34;4.60;99.90
32947;DHT22;54465;51.230;22.504;2023-01-23T20:14:35;4.60;99.90
32947;DHT22;54465;51.230;22.504;2023-01-23T20:19:37;4.60;99.90
32947;DHT22;54465;51.230;22.504;2023-01-23T20:24:38;4.50;99.90
32947;DHT22;54465;51.230;22.504;2023-01-23T20:29:39;4.60;99.90
32947;DHT22;54465;51.230;22.504;2023-01-23T20:34:39;4.50;99.90
32947;DHT22;54465;51.230;22.504;2023-01-23T20:39:40;4.50;99.90
32947;DHT22;54465;51.230;22.504;2023-01-23T20:44:41;4.60;99.90
32947;DHT22;54465;51.230;22.504;2023-01-23T20:49:42;4.60;99.90
32947;DHT22;54465;51.230;22.504;2023-01-23T20:54:43;4.60;99.90
32947;DHT22;54465;51.230;22.504;2023-01-23T20:59:43;4.60;99.90
32947;DHT22;54465;51.230;22.504;2023-01-23T21:04:44;4.60;99.90
32947;DHT22;54465;51.230;22.504;2023-01-23T21:09:45;4.60;99.90
32947;DHT22;54465;51.230;22.504;2023-01-23T21:14:45;4.60;99.90
32947;DHT22;54465;51.230;22.504;2023-01-23T21:19:46;4.50;99.90
32947;DHT22;54465;51.230;22.504;2023-01-23T21:24:47;4.50;99.90
32947;DHT22;54465;51.230;22.504;2023-01-23T21:29:48;4.50;99.90
32947;DHT22;54465;51.230;22.504;2023-01-23T21:34:48;4.50;99.90
32947;DHT22;54465;51.230;22.504;2023-01-23T21:39:51;4.60;99.90
32947;DHT22;54465;51.230;22.504;2023-01-23T21:44:51;4.50;99.90
32947;DHT22;54465;51.230;22.504;2023-01-23T21:49:55;4.50;99.90
32947;DHT22;54465;51.230;22.504;2023-01-23T21:54:56;4.40;99.90
32947;DHT22;54465;51.230;22.504;2023-01-23T21:59:57;4.50;99.90
32947;DHT22;54465;51.230;22.504;2023-01-23T22:05:16;4.50;99.90
32947;DHT22;54465;51.230;22.504;2023-01-23T22:10:17;4.50;99.90
32947;DHT22;54465;51.230;22.504;2023-01-23T22:15:18;4.60;99.90
32947;DHT22;54465;51.230;22.504;2023-01-23T22:20:19;4.60;99.90
32947;DHT22;54465;51.230;22.504;2023-01-23T22:25:20;4.60;99.90
32947;DHT22;54465;51.230;22.504;2023-01-23T22:30:21;4.60;99.90
32947;DHT22;54465;51.230;22.504;2023-01-23T22:35:21;4.60;99.90
32947;DHT22;54465;51.230;22.504;2023-01-23T22:40:22;4.60;99.90
32947;DHT22;54465;51.230;22.504;2023-01-23T22:45:23;4.60;99.90
32947;DHT22;54465;51.230;22.504;2023-01-23T22:50:24;4.70;99.90
32947;DHT22;54465;51.230;22.504;2023-01-23T22:55:25;4.70;99.90
32947;DHT22;54465;51.230;22.504;2023-01-23T23:00:26;4.80;99.90
32947;DHT22;54465;51.230;22.504;2023-01-23T23:05:26;4.80;99.90
32947;DHT22;54465;51.230;22.504;2023-01-23T23:10:27;4.80;99.90
32947;DHT22;54465;51.230;22.504;2023-01-23T23:15:28;4.80;99.90
32947;DHT22;54465;51.230;22.504;2023-01-23T23:20:28;4.80;99.90
32947;DHT22;54465;51.230;22.504;2023-01-23T23:25:33;4.80;99.90
32947;DHT22;54465;51.230;22.504;2023-01-23T23:30:34;4.80;99.90
32947;DHT22;54465;51.230;22.504;2023-01-23T23:35:35;4.70;99.90
32947;DHT22;54465;51.230;22.504;2023-01-23T23:40:36;4.70;99.90
32947;DHT22;54465;51.230;22.504;2023-01-23T23:45:37;4.70;99.90
32947;DHT22;54465;51.230;22.504;2023-01-23T23:50:37;4.70;99.90
32947;DHT22;54465;51.230;22.504;2023-01-23T23:55:38;4.70;99.90
